Time;durP1;ratioP1;P1;durP2;ratioP2;P2;SDS_P1;SDS_P2;PMS_P1;PMS_P2;Temp;Humidity;BMP_temperature;BMP_pressure;BME280_temperature;BME280_humidity;BME280_pressure;Samples;Min_cycle;Max_cycle;Signal;HPM_P1;HPM_P2
2022/11/30 00:00:48;;;;;;;42.60;23.10;;;;;;;7.31;53.51;102274.50;7393011;19;20002;-59
2022/11/30 00:03:14;;;;;;;43.80;23.00;;;;;;;7.35;53.50;102278.28;7393042;19;20213;-58
2022/11/30 00:05:39;;;;;;;43.25;23.17;;;;;;;7.49;53.38;102273.00;7389746;19;20106;-59
2022/11/30 00:08:05;;;;;;;41.72;22.70;;;;;;;7.43;53.36;102276.88;7393901;19;19999;-59
2022/11/30 00:10:31;;;;;;;47.08;24.25;;;;;;;7.50;53.19;102285.50;7393140;19;19991;-61
2022/11/30 00:12:56;;;;;;;47.25;23.90;;;;;;;7.45;53.27;102282.03;7393106;19;20026;-61
2022/11/30 00:15:22;;;;;;;47.80;24.48;;;;;;;7.39;53.16;102287.47;7390887;19;19998;-61
2022/11/30 00:17:48;;;;;;;46.75;24.17;;;;;;;7.35;53.42;102283.72;7391293;19;20114;-61
2022/11/30 00:20:14;;;;;;;49.03;23.63;;;;;;;7.35;53.49;102286.44;7392630;19;20031;-61
2022/11/30 00:22:40;;;;;;;46.45;23.88;;;;;;;7.25;53.79;102288.41;7391730;19;20003;-60
2022/11/30 00:25:07;;;;;;;44.78;23.05;;;;;;;7.26;53.67;102282.66;7392255;19;20007;-59
2022/11/30 00:27:34;;;;;;;44.08;22.52;;;;;;;7.29;53.71;102284.81;7390480;19;19991;-60
2022/11/30 00:30:00;;;;;;;46.17;24.17;;;;;;;7.27;53.59;102289.75;7393196;19;20003;-59
2022/11/30 00:32:27;;;;;;;40.22;22.25;;;;;;;7.39;53.15;102289.38;7392905;19;19995;-60
2022/11/30 00:34:53;;;;;;;42.30;22.42;;;;;;;7.42;53.20;102295.06;7391199;19;20027;-59
2022/11/30 00:37:19;;;;;;;45.03;23.98;;;;;;;7.32;53.55;102300.56;7389974;19;20025;-59
2022/11/30 00:39:45;;;;;;;46.70;24.38;;;;;;;7.41;53.15;102304.31;7392453;19;20002;-61
2022/11/30 00:42:11;;;;;;;45.15;23.20;;;;;;;7.36;53.54;102298.91;7391616;19;20026;-60
2022/11/30 00:44:36;;;;;;;46.20;24.00;;;;;;;7.44;53.06;102296.69;7390639;19;20566;-60
2022/11/30 00:47:02;;;;;;;45.42;22.88;;;;;;;7.41;53.14;102298.88;7388355;19;19995;-60
2022/11/30 00:49:28;;;;;;;45.13;23.05;;;;;;;7.37;53.27;102292.38;7392525;19;19991;-60
2022/11/30 00:51:54;;;;;;;45.25;23.17;;;;;;;7.34;53.40;102290.22;7391919;19;20612;-60
2022/11/30 00:54:20;;;;;;;45.20;23.73;;;;;;;7.32;53.47;102294.34;7391278;19;20026;-60
2022/11/30 00:56:45;;;;;;;46.85;23.50;;;;;;;7.46;53.02;102297.22;7390339;19;20009;-60
2022/11/30 00:59:11;;;;;;;44.13;23.00;;;;;;;7.45;52.89;102292.88;7391604;19;20024;-60
2022/11/30 01:01:37;;;;;;;46.70;23.83;;;;;;;7.25;53.38;102299.28;7390169;19;19999;-60
2022/11/30 01:04:03;;;;;;;42.60;22.55;;;;;;;7.33;53.26;102291.34;7390978;19;19998;-60
2022/11/30 01:06:28;;;;;;;49.65;24.30;;;;;;;7.21;53.31;102293.56;7387875;19;20030;-59
2022/11/30 01:08:54;;;;;;;46.55;24.92;;;;;;;7.22;53.43;102287.06;7389285;19;20317;-59
2022/11/30 01:11:23;;;;;;;51.30;24.65;;;;;;;7.32;53.37;102294.34;7391344;19;20570;-61
2022/11/30 01:13:50;;;;;;;45.28;25.17;;;;;;;7.39;53.11;102298.34;7390587;19;20025;-60
2022/11/30 01:16:20;;;;;;;43.00;21.88;;;;;;;7.41;52.95;102304.31;7390259;19;19995;-60
2022/11/30 01:18:47;;;;;;;44.75;22.60;;;;;;;7.47;53.08;102299.66;7389461;19;19995;-60
2022/11/30 01:21:16;;;;;;;49.53;24.92;;;;;;;7.42;52.89;102299.69;7388932;19;20455;-60
2022/11/30 01:23:42;;;;;;;44.45;23.85;;;;;;;7.25;53.37;102300.09;7389530;19;20030;-60
2022/11/30 01:26:08;;;;;;;50.15;24.80;;;;;;;7.27;53.59;102303.31;7388275;19;19999;-60
2022/11/30 01:28:34;;;;;;;54.05;25.52;;;;;;;7.35;53.26;102300.00;7391258;19;19994;-60
2022/11/30 01:31:03;;;;;;;49.85;25.23;;;;;;;7.41;53.03;102298.88;7388269;19;20459;-60
2022/11/30 01:33:29;;;;;;;51.03;25.33;;;;;;;7.28;53.27;102299.53;7390800;19;19999;-59
2022/11/30 01:36:00;;;;;;;52.92;25.77;;;;;;;7.35;53.22;102300.00;7388444;19;20003;-60
2022/11/30 01:38:30;;;;;;;50.65;24.90;;;;;;;7.48;52.77;102300.44;7387175;19;20022;-60
2022/11/30 01:41:04;;;;;;;51.80;27.05;;;;;;;7.31;53.21;102287.25;7386354;19;20040;-59
2022/11/30 01:43:42;;;;;;;54.00;25.85;;;;;;;7.35;52.92;102291.84;7389472;19;20007;-59
2022/11/30 01:46:26;;;;;;;51.83;25.42;;;;;;;7.30;53.04;102285.66;7383377;19;20028;-60
2022/11/30 01:49:21;;;;;;;55.15;25.38;;;;;;;7.31;53.13;102298.13;7386774;19;20006;-59
2022/11/30 01:51:52;;;;;;;56.00;26.30;;;;;;;7.44;53.00;102291.25;7388284;19;20002;-59
2022/11/30 01:54:23;;;;;;;52.30;25.25;;;;;;;7.46;52.66;102292.56;7388677;19;20031;-60
2022/11/30 01:56:55;;;;;;;57.95;27.33;;;;;;;7.43;52.87;102293.16;7387514;19;20006;-60
2022/11/30 01:59:22;;;;;;;58.30;26.58;;;;;;;7.29;53.29;102292.97;7386268;19;20531;-60
2022/11/30 02:01:49;;;;;;;56.75;26.58;;;;;;;7.18;53.46;102294.16;7387598;19;20002;-59
2022/11/30 02:04:28;;;;;;;53.17;25.33;;;;;;;7.16;53.49;102291.72;7385974;19;20466;-60
2022/11/30 02:06:56;;;;;;;53.35;26.33;;;;;;;7.31;53.14;102293.53;7381531;19;20005;-59
2022/11/30 02:09:22;;;;;;;51.75;24.90;;;;;;;7.31;53.17;102295.41;7388828;19;19994;-59
2022/11/30 02:11:49;;;;;;;57.67;26.30;;;;;;;7.40;52.74;102296.44;7392381;19;20315;-60
2022/11/30 02:14:33;;;;;;;52.13;25.77;;;;;;;7.22;53.36;102297.91;7393653;19;20026;-60
2022/11/30 02:17:31;;;;;;;52.78;25.58;;;;;;;7.20;53.34;102300.13;7393574;19;20025;-59
2022/11/30 02:19:56;;;;;;;54.10;25.58;;;;;;;6.99;53.71;102308.34;7394451;19;20008;-59
2022/11/30 02:23:00;;;;;;;56.83;25.17;;;;;;;7.08;53.76;102307.78;7394016;19;20340;-58
2022/11/30 02:25:50;;;;;;;53.83;24.90;;;;;;;7.18;53.55;102310.47;7392674;19;20020;-59
2022/11/30 02:28:51;;;;;;;52.15;25.27;;;;;;;7.30;53.20;102312.81;7392829;19;19997;-61
2022/11/30 02:31:27;;;;;;;53.78;26.50;;;;;;;7.29;52.96;102312.00;7392880;19;19998;-59
2022/11/30 02:33:56;;;;;;;58.17;25.30;;;;;;;7.33;53.17;102318.50;7391915;19;20026;-60
2022/11/30 02:36:23;;;;;;;52.30;24.95;;;;;;;7.36;52.96;102317.94;7390943;19;20007;-60
2022/11/30 02:38:56;;;;;;;62.78;26.98;;;;;;;7.27;53.09;102314.19;6895231;19;9752045;-60
2022/11/30 02:41:22;;;;;;;60.90;27.65;;;;;;;7.15;53.58;102311.00;7396388;19;20018;-60
2022/11/30 02:43:48;;;;;;;53.95;25.58;;;;;;;7.26;53.36;102315.25;7396338;19;20501;-60
2022/11/30 02:46:25;;;;;;;59.08;27.70;;;;;;;7.33;53.00;102313.06;7392591;19;20107;-60
2022/11/30 02:49:19;;;;;;;55.25;26.70;;;;;;;7.16;53.60;102315.34;7396184;19;20478;-59
2022/11/30 02:51:47;;;;;;;63.60;28.33;;;;;;;7.25;53.28;102313.66;7395968;19;20022;-60
2022/11/30 02:54:12;;;;;;;61.85;27.52;;;;;;;7.19;53.42;102314.78;7394352;19;20018;-60
2022/11/30 02:56:38;;;;;;;56.35;27.30;;;;;;;7.27;53.27;102316.91;7390800;19;20086;-60
2022/11/30 02:59:04;;;;;;;65.32;27.58;;;;;;;7.23;53.51;102307.69;7395576;19;20006;-60
2022/11/30 03:01:30;;;;;;;71.05;28.92;;;;;;;7.26;53.21;102317.97;7393607;19;19994;-60
2022/11/30 03:03:56;;;;;;;62.35;28.23;;;;;;;7.30;53.41;102323.69;7395726;19;20007;-60
2022/11/30 03:06:21;;;;;;;63.38;28.40;;;;;;;7.32;53.27;102322.28;7392006;19;20374;-60
2022/11/30 03:08:47;;;;;;;72.20;30.70;;;;;;;7.35;53.09;102321.75;7393433;19;20349;-60
2022/11/30 03:11:13;;;;;;;64.07;28.83;;;;;;;7.34;53.17;102319.31;7393597;19;20002;-60
2022/11/30 03:13:38;;;;;;;77.25;30.35;;;;;;;7.25;53.24;102332.66;7395402;19;20026;-58
2022/11/30 03:16:09;;;;;;;68.80;29.55;;;;;;;7.31;53.14;102333.44;7392587;19;20015;-59
2022/11/30 03:18:35;;;;;;;63.67;29.10;;;;;;;7.39;53.05;102327.41;7394729;19;20018;-59
2022/11/30 03:21:05;;;;;;;67.32;28.17;;;;;;;7.44;52.82;102332.00;7394714;19;20485;-59
2022/11/30 03:23:31;;;;;;;64.38;28.48;;;;;;;7.38;52.83;102325.81;7394400;19;20081;-59
2022/11/30 03:25:57;;;;;;;69.47;29.55;;;;;;;7.39;52.94;102338.28;7390845;19;20024;-59
2022/11/30 03:28:24;;;;;;;66.15;28.95;;;;;;;7.33;53.20;102340.22;7392625;19;20005;-59
2022/11/30 03:30:50;;;;;;;71.93;30.35;;;;;;;7.36;52.86;102336.13;7394636;19;20005;-59
2022/11/30 03:33:16;;;;;;;68.90;28.27;;;;;;;7.33;53.02;102336.69;7393860;19;19998;-59
2022/11/30 03:35:43;;;;;;;65.68;29.15;;;;;;;7.32;53.02;102333.16;7391118;19;20013;-60
2022/11/30 03:38:14;;;;;;;72.50;30.52;;;;;;;7.28;53.06;102329.41;7392464;19;20026;-59
2022/11/30 03:40:40;;;;;;;67.70;29.52;;;;;;;7.42;52.63;102326.84;7393601;19;20509;-59
2022/11/30 03:43:06;;;;;;;65.65;28.45;;;;;;;7.38;52.71;102331.25;7393544;19;20010;-59
2022/11/30 03:45:31;;;;;;;65.45;30.00;;;;;;;7.31;52.92;102333.44;7392060;19;20459;-59
2022/11/30 03:47:57;;;;;;;64.57;28.90;;;;;;;7.12;53.45;102341.44;7394485;19;20018;-59
2022/11/30 03:50:23;;;;;;;66.88;29.20;;;;;;;7.13;53.43;102338.44;7393257;19;20003;-60
2022/11/30 03:52:49;;;;;;;71.60;30.05;;;;;;;7.27;53.21;102349.50;7393907;19;20007;-60
2022/11/30 03:55:14;;;;;;;57.80;28.58;;;;;;;7.34;53.04;102349.19;7390194;19;20018;-60
2022/11/30 03:57:40;;;;;;;66.00;28.17;;;;;;;7.38;52.95;102353.78;7393425;19;19999;-60
2022/11/30 04:00:06;;;;;;;69.80;29.45;;;;;;;7.38;52.93;102361.13;7391375;19;19995;-60
2022/11/30 04:02:32;;;;;;;74.07;30.40;;;;;;;7.13;53.38;102362.06;7394118;19;20002;-60
2022/11/30 04:04:57;;;;;;;69.50;30.13;;;;;;;7.04;53.93;102359.94;7391569;19;20006;-60
2022/11/30 04:07:23;;;;;;;73.95;30.92;;;;;;;7.22;53.64;102361.19;7393232;19;20521;-60
2022/11/30 04:09:49;;;;;;;65.13;28.50;;;;;;;7.33;53.07;102361.13;7392741;19;20019;-60
2022/11/30 04:12:15;;;;;;;70.15;29.35;;;;;;;7.27;53.24;102367.69;7393330;19;19991;-60
2022/11/30 04:14:41;;;;;;;66.80;29.15;;;;;;;7.23;53.44;102372.88;7392482;19;20010;-61
2022/11/30 04:17:06;;;;;;;66.80;28.55;;;;;;;7.22;53.25;102371.25;7392209;19;19995;-59
2022/11/30 04:19:38;;;;;;;63.67;29.10;;;;;;;7.23;53.18;102373.69;7392402;19;20364;-59
2022/11/30 04:22:04;;;;;;;62.58;28.25;;;;;;;7.21;53.17;102369.63;7391831;19;20613;-58
2022/11/30 04:24:30;;;;;;;67.40;29.40;;;;;;;7.18;53.40;102371.00;7392692;19;20036;-60
2022/11/30 04:26:55;;;;;;;67.40;28.75;;;;;;;7.25;53.09;102367.97;7388939;19;20007;-60
2022/11/30 04:29:21;;;;;;;61.88;27.50;;;;;;;7.25;52.88;102362.53;7392784;19;19994;-59
2022/11/30 04:31:47;;;;;;;64.50;29.63;;;;;;;7.25;52.93;102365.25;7390184;19;20459;-60
2022/11/30 04:34:12;;;;;;;58.45;27.27;;;;;;;7.28;52.90;102359.28;7391103;19;20035;-59
2022/11/30 04:36:38;;;;;;;60.67;27.48;;;;;;;7.25;52.91;102369.91;7389114;19;20459;-59
2022/11/30 04:39:04;;;;;;;64.68;28.13;;;;;;;7.31;52.58;102366.88;7389146;19;20031;-60
2022/11/30 04:41:29;;;;;;;55.85;26.42;;;;;;;7.30;52.70;102364.44;7392025;19;20058;-60
2022/11/30 04:43:55;;;;;;;62.13;27.52;;;;;;;7.25;52.66;102367.97;7391014;19;20002;-59
2022/11/30 04:46:21;;;;;;;54.60;25.13;;;;;;;7.24;52.96;102371.78;7389372;19;20003;-60
2022/11/30 04:48:46;;;;;;;53.03;25.83;;;;;;;7.21;52.73;102367.72;7391533;19;20003;-59
2022/11/30 04:51:12;;;;;;;49.63;24.25;;;;;;;7.32;52.63;102365.75;7392018;19;20381;-59
2022/11/30 04:53:38;;;;;;;49.63;24.25;;;;;;;7.27;52.87;102373.94;7391755;19;19998;-60
2022/11/30 04:56:09;;;;;;;51.17;24.45;;;;;;;7.16;53.05;102369.66;7390105;19;20023;-59
2022/11/30 04:58:35;;;;;;;50.65;24.15;;;;;;;7.05;53.34;102372.41;7391191;19;20008;-60
2022/11/30 05:01:02;;;;;;;50.15;25.13;;;;;;;7.22;52.74;102377.47;7392656;19;19999;-60
2022/11/30 05:03:27;;;;;;;49.90;25.00;;;;;;;7.22;52.95;102380.19;7390948;19;20002;-60
2022/11/30 05:05:53;;;;;;;50.42;25.15;;;;;;;7.11;52.92;102384.09;7389717;19;20032;-60
2022/11/30 05:08:19;;;;;;;49.10;24.80;;;;;;;7.22;52.67;102382.13;7391037;19;20083;-59
2022/11/30 05:10:45;;;;;;;52.03;26.02;;;;;;;7.05;52.93;102380.56;7390765;19;20446;-60
2022/11/30 05:13:10;;;;;;;49.45;24.17;;;;;;;7.12;52.82;102387.59;7391461;19;20307;-60
2022/11/30 05:15:36;;;;;;;50.35;24.58;;;;;;;7.15;52.59;102389.75;7389204;19;20447;-59
2022/11/30 05:18:02;;;;;;;48.25;23.45;;;;;;;7.20;52.54;102395.97;7391179;19;20008;-59
2022/11/30 05:20:28;;;;;;;47.92;23.38;;;;;;;7.25;52.42;102399.75;7391062;19;19995;-59
2022/11/30 05:22:54;;;;;;;51.72;25.17;;;;;;;7.19;52.51;102398.97;7391655;19;20443;-58
2022/11/30 05:25:19;;;;;;;50.60;24.67;;;;;;;7.29;52.28;102404.34;7388815;19;20018;-59
2022/11/30 05:27:45;;;;;;;51.45;24.35;;;;;;;7.34;52.07;102400.78;7391156;19;19987;-60
2022/11/30 05:30:11;;;;;;;53.10;25.23;;;;;;;7.19;52.47;102398.97;7388996;19;20022;-59
2022/11/30 05:32:37;;;;;;;56.30;26.17;;;;;;;7.02;52.99;102402.03;7389044;19;19999;-59
2022/11/30 05:35:03;;;;;;;52.83;25.80;;;;;;;7.12;52.87;102415.56;7388596;19;20009;-58
2022/11/30 05:37:29;;;;;;;52.85;25.67;;;;;;;7.20;52.73;102406.84;7388515;19;20082;-59
2022/11/30 05:39:55;;;;;;;52.30;24.45;;;;;;;7.25;52.61;102402.47;7388584;19;20096;-60
2022/11/30 05:42:20;;;;;;;50.92;24.15;;;;;;;7.28;52.27;102401.91;7390643;19;19999;-59
2022/11/30 05:44:46;;;;;;;50.58;24.05;;;;;;;7.19;52.62;102409.81;7392517;19;20485;-60
2022/11/30 05:47:12;;;;;;;50.08;23.83;;;;;;;7.27;52.35;102411.97;7393062;19;20010;-60
2022/11/30 05:49:38;;;;;;;55.58;24.30;;;;;;;7.21;52.43;102407.63;7397084;19;20082;-60
2022/11/30 05:52:04;;;;;;;52.45;24.60;;;;;;;7.16;52.58;102419.34;7397287;19;20007;-59
2022/11/30 05:54:30;;;;;;;52.25;25.27;;;;;;;7.23;52.82;102409.00;7395872;19;20009;-59
2022/11/30 05:56:55;;;;;;;48.10;23.77;;;;;;;7.13;52.67;102414.47;7397026;19;20418;-59
2022/11/30 05:59:22;;;;;;;47.53;22.67;;;;;;;7.13;52.82;102419.06;7395794;19;19999;-59
2022/11/30 06:01:50;;;;;;;56.00;24.48;;;;;;;7.17;52.71;102428.31;7397124;19;20072;-60
2022/11/30 06:04:15;;;;;;;51.00;24.90;;;;;;;7.23;52.71;102417.13;7398395;19;20003;-60
2022/11/30 06:06:41;;;;;;;49.80;23.33;;;;;;;7.16;52.81;102422.06;7394656;19;20022;-60
2022/11/30 06:09:07;;;;;;;53.17;23.80;;;;;;;7.25;52.69;102422.28;7394775;19;20021;-59
2022/11/30 06:11:33;;;;;;;52.65;24.65;;;;;;;7.29;52.52;102426.06;7396766;19;20365;-60
2022/11/30 06:13:58;;;;;;;50.05;23.30;;;;;;;7.36;52.45;102421.16;7397724;19;20006;-59
2022/11/30 06:16:24;;;;;;;51.00;22.95;;;;;;;7.35;52.22;102427.69;7393859;19;20011;-60
2022/11/30 06:18:51;;;;;;;56.15;24.85;;;;;;;7.35;52.42;102430.41;7396550;19;19998;-60
2022/11/30 06:21:17;;;;;;;54.35;24.73;;;;;;;7.37;52.48;102432.84;7397181;19;20086;-60
2022/11/30 06:23:42;;;;;;;55.25;24.65;;;;;;;7.35;52.44;102435.81;7396609;19;19994;-60
2022/11/30 06:26:10;;;;;;;53.80;23.90;;;;;;;7.26;52.54;102442.13;7393604;19;20009;-59
2022/11/30 06:28:37;;;;;;;56.70;25.42;;;;;;;7.22;52.75;102442.66;7396636;19;20008;-59
2022/11/30 06:31:05;;;;;;;51.38;24.30;;;;;;;7.16;53.08;102443.78;7396824;19;20010;-59
2022/11/30 06:33:32;;;;;;;51.95;23.92;;;;;;;7.30;52.66;102448.63;7396101;19;20010;-59
2022/11/30 06:35:58;;;;;;;56.70;26.02;;;;;;;7.26;52.92;102451.06;7391499;19;20470;-60
2022/11/30 06:38:25;;;;;;;50.08;22.92;;;;;;;7.19;52.79;102447.84;7395200;19;20006;-59
2022/11/30 06:40:51;;;;;;;52.95;24.08;;;;;;;7.13;53.04;102443.50;7395837;19;20034;-59
2022/11/30 06:43:17;;;;;;;53.33;24.80;;;;;;;7.07;53.17;102444.66;7396069;19;20092;-58
2022/11/30 06:45:44;;;;;;;52.30;23.52;;;;;;;7.02;53.30;102450.91;7391398;19;20006;-59
2022/11/30 06:48:10;;;;;;;47.45;22.60;;;;;;;6.98;53.46;102449.84;7394993;19;20003;-59
2022/11/30 06:50:36;;;;;;;48.97;22.88;;;;;;;7.15;53.12;102447.59;7395498;19;20007;-60
2022/11/30 06:53:03;;;;;;;53.25;24.63;;;;;;;7.21;52.90;102451.91;7396842;19;20002;-60
2022/11/30 06:55:31;;;;;;;54.58;23.42;;;;;;;7.11;53.08;102448.41;7392898;19;19999;-59
2022/11/30 06:58:23;;;;;;;54.10;23.17;;;;;;;7.04;53.51;102452.25;7394351;19;20006;-59
2022/11/30 07:00:49;;;;;;;57.80;26.08;;;;;;;7.15;53.25;102453.03;7394080;19;20014;-60
2022/11/30 07:03:15;;;;;;;54.08;25.15;;;;;;;7.05;53.44;102458.50;7395825;19;19999;-59
2022/11/30 07:05:45;;;;;;;57.97;26.00;;;;;;;7.07;53.00;102456.31;7392290;19;20387;-59
2022/11/30 07:08:12;;;;;;;63.13;26.13;;;;;;;7.10;53.09;102454.97;7391422;19;20052;-59
2022/11/30 07:10:43;;;;;;;69.50;28.05;;;;;;;7.21;52.74;102459.22;7396296;19;20007;-58
2022/11/30 07:13:14;;;;;;;66.35;28.25;;;;;;;7.28;52.53;102464.38;7395105;19;20003;-58
2022/11/30 07:15:41;;;;;;;57.42;24.65;;;;;;;7.17;52.92;102458.19;7395132;19;20020;-58
2022/11/30 07:18:07;;;;;;;61.40;27.20;;;;;;;7.25;52.79;102457.59;7394052;19;20458;-59
2022/11/30 07:20:34;;;;;;;60.15;26.83;;;;;;;7.22;52.72;102452.72;7395976;19;20007;-59
2022/11/30 07:28:28;;;;;;;57.83;25.50;;;;;;;7.00;53.27;102478.31;7393729;19;20096;-58
2022/11/30 07:30:54;;;;;;;63.63;26.50;;;;;;;7.03;53.23;102475.06;7393444;19;20417;-58
2022/11/30 07:33:20;;;;;;;71.65;29.00;;;;;;;7.06;53.15;102479.09;7395501;19;20009;-58
2022/11/30 07:35:45;;;;;;;78.40;30.08;;;;;;;7.02;53.28;102476.13;7394655;19;20795;-58
2022/11/30 07:38:11;;;;;;;88.53;31.85;;;;;;;7.01;53.18;102479.97;7391458;19;20297;-58
2022/11/30 07:40:37;;;;;;;81.88;34.42;;;;;;;7.01;53.46;102482.69;7393460;19;20055;-58
2022/11/30 07:43:02;;;;;;;92.47;34.83;;;;;;;7.07;52.82;102482.66;7392895;19;20476;-58
2022/11/30 07:45:28;;;;;;;84.10;33.63;;;;;;;7.11;53.12;102483.72;7393101;19;20002;-58
2022/11/30 07:47:54;;;;;;;83.53;33.55;;;;;;;7.07;52.87;102490.81;7393634;19;20746;-58
2022/11/30 07:50:20;;;;;;;83.88;33.00;;;;;;;6.81;53.64;102497.06;7394392;19;20462;-58
2022/11/30 07:52:45;;;;;;;81.85;33.83;;;;;;;6.92;53.53;102500.59;7392041;19;20482;-58
2022/11/30 07:55:11;;;;;;;90.82;35.13;;;;;;;7.00;53.31;102504.66;7393353;19;19995;-58
2022/11/30 07:57:37;;;;;;;81.55;34.45;;;;;;;7.12;53.10;102507.06;7393861;19;20668;-58
2022/11/30 08:00:02;;;;;;;81.30;34.63;;;;;;;7.19;52.72;102502.16;7394723;19;20043;-58
2022/11/30 08:02:28;;;;;;;78.78;34.78;;;;;;;7.11;53.06;102506.28;7394593;19;20320;-58
2022/11/30 08:04:57;;;;;;;79.18;32.97;;;;;;;7.08;53.15;102508.69;7391613;19;20482;-58
2022/11/30 08:07:23;;;;;;;75.22;31.88;;;;;;;7.16;52.93;102508.97;7390328;19;20002;-58
2022/11/30 08:09:49;;;;;;;83.40;31.48;;;;;;;7.22;52.60;102507.03;7391976;19;20017;-58
2022/11/30 08:12:14;;;;;;;70.22;30.65;;;;;;;7.16;52.66;102508.13;7394474;19;20342;-58
2022/11/30 08:14:40;;;;;;;74.22;31.50;;;;;;;7.05;52.89;102508.16;7392162;19;20027;-58
2022/11/30 08:17:07;;;;;;;69.20;29.85;;;;;;;6.95;53.16;102512.81;7393064;19;19998;-58
2022/11/30 08:19:33;;;;;;;75.88;31.73;;;;;;;6.91;53.44;102514.41;7391667;19;19991;-58
2022/11/30 08:21:59;;;;;;;82.10;34.72;;;;;;;7.18;52.76;102514.13;7389778;19;20018;-58
2022/11/30 08:24:25;;;;;;;84.22;32.90;;;;;;;7.26;52.54;102513.53;7393246;19;20006;-58
2022/11/30 08:26:51;;;;;;;81.15;34.17;;;;;;;7.28;52.46;102519.53;7390975;19;20467;-58
2022/11/30 08:29:18;;;;;;;80.05;32.00;;;;;;;7.31;52.49;102521.69;7390234;19;20006;-58
2022/11/30 08:31:43;;;;;;;79.97;33.17;;;;;;;7.32;52.48;102517.88;7393125;19;19995;-58
2022/11/30 08:34:11;;;;;;;85.43;35.53;;;;;;;7.17;52.79;102520.63;7391116;19;20015;-58
2022/11/30 08:36:38;;;;;;;72.78;32.03;;;;;;;7.20;52.75;102526.34;7392930;19;20004;-58
2022/11/30 08:39:06;;;;;;;81.05;32.53;;;;;;;7.29;52.60;102523.06;7391766;19;20013;-58
2022/11/30 08:41:34;;;;;;;72.63;31.05;;;;;;;7.28;52.62;102529.56;7392832;19;19994;-58
2022/11/30 08:44:00;;;;;;;80.57;32.00;;;;;;;7.23;52.51;102531.22;7392830;19;20006;-58
2022/11/30 08:46:26;;;;;;;75.63;31.27;;;;;;;7.31;52.40;102532.56;7390033;19;20009;-58
2022/11/30 08:48:51;;;;;;;72.75;31.02;;;;;;;7.30;52.30;102541.78;7391285;19;20003;-58
2022/11/30 08:51:19;;;;;;;75.57;32.50;;;;;;;7.32;52.31;102534.16;7392405;19;19998;-58
2022/11/30 08:53:45;;;;;;;71.60;31.30;;;;;;;7.31;52.46;102537.16;7392502;19;20069;-58
2022/11/30 08:56:14;;;;;;;77.70;31.67;;;;;;;7.34;52.24;102537.41;7391145;19;19998;-58
2022/11/30 08:58:40;;;;;;;75.70;30.73;;;;;;;7.44;52.07;102544.72;7390561;19;20019;-58
2022/11/30 09:01:12;;;;;;;70.95;30.48;;;;;;;7.27;52.56;102546.97;7392167;19;20066;-58
2022/11/30 09:03:38;;;;;;;71.55;30.98;;;;;;;7.37;52.40;102546.94;7391918;19;20002;-58
2022/11/30 09:06:07;;;;;;;72.70;31.52;;;;;;;7.29;52.38;102552.94;7389216;19;20610;-58
2022/11/30 09:08:33;;;;;;;74.70;30.98;;;;;;;7.11;52.82;102557.03;7390456;19;20034;-58
2022/11/30 09:11:10;;;;;;;75.72;31.75;;;;;;;7.19;52.83;102556.47;7389903;19;20006;-58
2022/11/30 09:13:36;;;;;;;77.45;31.75;;;;;;;7.39;52.36;102561.03;7389984;19;20010;-58
2022/11/30 09:16:03;;;;;;;76.57;31.98;;;;;;;7.46;52.05;102566.19;7388420;19;20552;-59
2022/11/30 09:18:29;;;;;;;71.75;30.35;;;;;;;7.43;52.20;102559.41;7390177;19;20003;-59
2022/11/30 09:21:22;;;;;;;76.25;31.33;;;;;;;7.39;52.22;102570.00;7391277;19;20007;-57
2022/11/30 09:23:48;;;;;;;71.82;31.25;;;;;;;7.28;52.60;102571.13;7389927;19;20005;-56
2022/11/30 09:26:16;;;;;;;74.28;31.00;;;;;;;7.25;52.61;102571.69;7389989;19;20019;-58
2022/11/30 09:28:44;;;;;;;69.97;30.20;;;;;;;7.31;52.38;102576.03;7389962;19;20085;-58
2022/11/30 09:31:12;;;;;;;81.60;32.15;;;;;;;7.32;52.34;102571.41;7392116;19;20038;-58
2022/11/30 09:33:38;;;;;;;69.40;30.98;;;;;;;7.41;52.35;102569.72;7390959;19;20030;-56
2022/11/30 09:36:06;;;;;;;69.40;29.65;;;;;;;7.35;52.38;102568.94;7390611;19;20399;-58
2022/11/30 09:38:33;;;;;;;72.35;30.40;;;;;;;7.34;52.37;102570.00;7390199;19;20003;-56
2022/11/30 09:41:03;;;;;;;64.13;28.65;;;;;;;7.55;52.09;102568.06;7391473;19;19998;-57
2022/11/30 09:43:34;;;;;;;65.75;28.65;;;;;;;7.49;52.08;102576.50;7391415;19;19999;-57
2022/11/30 09:46:04;;;;;;;61.88;29.27;;;;;;;7.49;52.17;102571.06;7389121;19;20002;-58
2022/11/30 09:48:51;;;;;;;60.58;27.70;;;;;;;7.40;52.34;102563.47;7388817;19;20007;-56
2022/11/30 09:51:28;;;;;;;67.65;30.65;;;;;;;7.57;51.87;102578.66;7389407;19;20002;-58
2022/11/30 09:53:58;;;;;;;67.75;29.88;;;;;;;7.54;52.07;102576.47;7390642;19;20006;-58
2022/11/30 09:56:31;;;;;;;67.65;29.20;;;;;;;7.48;52.15;102575.69;7388736;19;20003;-59
2022/11/30 09:59:07;;;;;;;65.60;29.48;;;;;;;7.35;52.53;102571.66;7390223;19;20003;-57
2022/11/30 10:01:35;;;;;;;68.32;29.63;;;;;;;7.48;52.19;102569.44;7390566;19;20062;-58
2022/11/30 10:04:01;;;;;;;59.67;27.00;;;;;;;7.52;52.04;102575.94;7389169;19;20389;-57
2022/11/30 10:06:43;;;;;;;60.67;28.08;;;;;;;7.55;51.85;102568.06;7388435;19;20455;-58
2022/11/30 10:09:24;;;;;;;61.05;27.73;;;;;;;7.55;51.70;102575.41;7388126;19;20021;-57
2022/11/30 10:12:00;;;;;;;63.75;29.38;;;;;;;7.42;52.12;102565.94;7390491;19;20007;-58
2022/11/30 10:14:48;;;;;;;68.15;29.00;;;;;;;7.47;51.90;102568.63;7389966;19;19995;-58
2022/11/30 10:17:19;;;;;;;67.03;28.75;;;;;;;7.49;52.10;102571.06;7391101;19;19999;-58
2022/11/30 10:20:12;;;;;;;61.13;27.17;;;;;;;7.54;52.05;102579.19;7386522;19;19997;-58
2022/11/30 10:23:04;;;;;;;65.70;27.50;;;;;;;7.44;52.22;102579.25;7390132;19;19995;-58
2022/11/30 10:25:54;;;;;;;64.03;28.67;;;;;;;7.50;52.34;102565.34;7386361;19;20057;-58
2022/11/30 10:28:48;;;;;;;71.65;30.30;;;;;;;7.52;52.11;102570.53;7389037;19;19999;-58
2022/11/30 10:31:15;;;;;;;59.60;27.90;;;;;;;7.52;52.07;102568.59;7395140;19;19991;-58
2022/11/30 10:33:53;;;;;;;61.67;28.60;;;;;;;7.52;52.00;102567.81;7395155;19;20010;-58
2022/11/30 10:36:38;;;;;;;66.28;27.77;;;;;;;7.54;52.07;102573.75;7396207;19;20068;-58
2022/11/30 10:39:17;;;;;;;71.40;28.40;;;;;;;7.58;51.81;102572.13;7395577;19;20021;-58
2022/11/30 10:41:50;;;;;;;68.60;29.13;;;;;;;7.54;52.13;102568.34;7396738;19;20731;-58
2022/11/30 10:44:23;;;;;;;61.70;27.43;;;;;;;7.59;51.83;102565.59;7395097;19;20003;-58
2022/11/30 10:47:01;;;;;;;61.17;26.52;;;;;;;7.62;52.08;102573.19;7392187;19;20232;-57
2022/11/30 10:49:30;;;;;;;62.20;27.10;;;;;;;7.67;51.84;102565.03;7394335;19;20005;-58
2022/11/30 10:52:06;;;;;;;66.63;29.15;;;;;;;7.61;51.94;102563.41;7396482;19;19998;-58
2022/11/30 10:54:34;;;;;;;62.78;28.48;;;;;;;7.64;51.86;102568.28;7396110;19;19998;-58
2022/11/30 10:57:05;;;;;;;62.63;27.23;;;;;;;7.47;52.40;102557.75;7396799;19;20034;-58
2022/11/30 10:59:42;;;;;;;61.10;28.33;;;;;;;7.36;52.47;102567.84;7394639;19;20025;-57
2022/11/30 11:02:37;;;;;;;67.63;28.85;;;;;;;7.48;52.29;102558.56;7394736;19;20007;-57
2022/11/30 11:05:24;;;;;;;70.20;29.00;;;;;;;7.59;51.94;102560.16;7395964;19;20006;-57
2022/11/30 11:07:54;;;;;;;62.35;27.65;;;;;;;7.58;51.97;102558.56;7396148;19;20005;-57
2022/11/30 11:10:41;;;;;;;61.20;27.77;;;;;;;7.69;51.96;102562.84;7393293;19;20041;-57
2022/11/30 11:13:33;;;;;;;65.55;28.60;;;;;;;7.52;51.98;102557.72;7394048;19;20007;-57
2022/11/30 11:16:01;;;;;;;68.45;29.58;;;;;;;7.49;52.50;102562.91;7395627;19;19998;-57
2022/11/30 11:18:31;;;;;;;71.28;28.90;;;;;;;7.44;52.32;102550.16;7394818;19;20021;-57
2022/11/30 11:21:03;;;;;;;66.43;28.00;;;;;;;7.55;52.29;102553.66;7395905;19;20022;-58
2022/11/30 11:23:35;;;;;;;71.65;29.83;;;;;;;7.66;51.91;102555.22;7395955;19;20023;-57
2022/11/30 11:26:02;;;;;;;67.60;29.40;;;;;;;7.62;52.16;102553.38;7393739;19;20066;-58
2022/11/30 11:28:29;;;;;;;62.97;28.55;;;;;;;7.62;52.18;102551.44;7394402;19;20025;-58
2022/11/30 11:30:56;;;;;;;72.32;29.30;;;;;;;7.44;52.41;102550.16;7395301;19;20003;-57